TimeCDT,TemperatureF,Dew PointF,Humidity,Sea Level PressureIn,VisibilityMPH,Wind Direction,Wind SpeedMPH,Gust SpeedMPH,PrecipitationIn,Events,Conditions,WindDirDegrees,DateUTC
12:13 AM,73.4,62.6,69,29.90,10.0,Calm,Calm,-,N/A,,Clear,0,2013-06-27 05:13:00
12:33 AM,71.6,62.6,73,29.90,10.0,Calm,Calm,-,N/A,,Clear,0,2013-06-27 05:33:00
12:54 AM,69.8,62.6,78,29.90,10.0,Calm,Calm,-,N/A,,Clear,0,2013-06-27 05:54:00
1:13 AM,71.6,62.6,73,29.90,10.0,Calm,Calm,-,N/A,,Clear,0,2013-06-27 06:13:00
1:33 AM,69.8,62.6,78,29.90,10.0,Calm,Calm,-,N/A,,Clear,0,2013-06-27 06:33:00
1:54 AM,69.8,62.6,78,29.90,10.0,South,4.6,-,N/A,,Clear,190,2013-06-27 06:54:00
2:13 AM,69.8,62.6,78,29.90,10.0,Calm,Calm,-,N/A,,Clear,0,2013-06-27 07:13:00
2:33 AM,69.8,62.6,78,29.90,10.0,Calm,Calm,-,N/A,,Clear,0,2013-06-27 07:33:00
2:53 AM,69.8,60.8,73,29.90,10.0,SW,3.5,-,N/A,,Clear,230,2013-06-27 07:53:00
3:13 AM,69.8,62.6,78,29.90,10.0,Calm,Calm,-,N/A,,Clear,0,2013-06-27 08:13:00
3:33 AM,69.8,62.6,78,29.91,10.0,WSW,5.8,-,N/A,,Scattered Clouds,240,2013-06-27 08:33:00
3:54 AM,69.8,62.6,78,29.91,10.0,WNW,4.6,-,N/A,,Scattered Clouds,290,2013-06-27 08:54:00
4:13 AM,69.8,62.6,78,29.92,10.0,West,5.8,-,N/A,,Scattered Clouds,280,2013-06-27 09:13:00
4:33 AM,69.8,62.6,78,29.91,10.0,West,5.8,-,N/A,,Clear,270,2013-06-27 09:33:00
4:53 AM,69.8,64.4,83,29.92,10.0,West,6.9,-,N/A,Rain,Light Rain,280,2013-06-27 09:53:00
5:13 AM,71.6,64.4,78,29.92,10.0,NNW,9.2,-,N/A,,Mostly Cloudy,330,2013-06-27 10:13:00
5:33 AM,71.6,64.4,78,29.93,10.0,NW,9.2,-,N/A,,Scattered Clouds,310,2013-06-27 10:33:00
5:53 AM,69.8,64.4,83,29.94,10.0,NW,8.1,-,N/A,,Scattered Clouds,310,2013-06-27 10:53:00
6:13 AM,71.6,64.4,78,29.93,10.0,NNW,8.1,-,N/A,,Scattered Clouds,330,2013-06-27 11:13:00
6:33 AM,71.6,64.4,78,29.94,10.0,NNW,9.2,-,N/A,,Clear,340,2013-06-27 11:33:00
6:53 AM,71.6,64.4,78,29.94,10.0,NW,6.9,-,N/A,,Scattered Clouds,320,2013-06-27 11:53:00
7:13 AM,71.6,64.4,78,29.94,10.0,NNW,6.9,-,N/A,,Clear,330,2013-06-27 12:13:00
7:33 AM,71.6,64.4,78,29.94,10.0,North,8.1,-,N/A,,Clear,350,2013-06-27 12:33:00
7:53 AM,73.4,62.6,69,29.95,10.0,NNW,8.1,-,N/A,,Clear,340,2013-06-27 12:53:00
8:13 AM,73.4,62.6,69,29.94,10.0,NNW,9.2,-,N/A,,Clear,330,2013-06-27 13:13:00
8:33 AM,75.2,60.8,61,29.95,10.0,NNW,5.8,-,N/A,,Clear,330,2013-06-27 13:33:00
8:53 AM,75.2,60.8,61,29.94,10.0,NNW,8.1,-,N/A,,Clear,340,2013-06-27 13:53:00
9:13 AM,77.0,57.2,50,29.94,10.0,NNW,10.4,-,N/A,,Clear,330,2013-06-27 14:13:00
9:33 AM,77.0,57.2,50,29.95,10.0,NNW,4.6,-,N/A,,Clear,330,2013-06-27 14:33:00
9:53 AM,78.8,53.6,42,29.96,10.0,NNW,13.8,20.7,N/A,,Clear,340,2013-06-27 14:53:00
10:13 AM,77.0,55.4,47,29.97,10.0,NW,11.5,-,N/A,,Clear,320,2013-06-27 15:13:00
10:33 AM,77.0,59.0,54,29.98,10.0,NW,6.9,-,N/A,,Clear,320,2013-06-27 15:33:00
10:53 AM,77.0,59.0,54,29.98,10.0,NW,9.2,-,N/A,,Clear,310,2013-06-27 15:53:00
11:13 AM,78.8,59.0,51,29.98,10.0,NW,10.4,-,N/A,,Clear,320,2013-06-27 16:13:00
11:33 AM,78.8,57.2,47,29.99,10.0,NW,11.5,17.3,N/A,,Clear,320,2013-06-27 16:33:00
11:53 AM,80.6,55.4,42,29.99,10.0,NW,13.8,18.4,N/A,,Clear,310,2013-06-27 16:53:00
12:13 PM,80.6,55.4,42,29.99,10.0,WNW,15.0,-,N/A,,Clear,300,2013-06-27 17:13:00
12:33 PM,80.6,51.8,37,29.99,10.0,NW,11.5,20.7,N/A,,Clear,320,2013-06-27 17:33:00
12:53 PM,82.4,51.8,35,29.99,10.0,NNW,16.1,20.7,N/A,,Clear,340,2013-06-27 17:53:00
1:13 PM,82.4,51.8,35,29.99,10.0,North,10.4,21.9,N/A,,Clear,10,2013-06-27 18:13:00
1:33 PM,80.6,51.8,37,29.99,10.0,NW,15.0,23.0,N/A,,Clear,320,2013-06-27 18:33:00
1:54 PM,82.4,53.6,37,29.99,10.0,NW,9.2,13.8,N/A,,Clear,310,2013-06-27 18:54:00
2:13 PM,82.4,51.8,35,29.98,10.0,NW,11.5,17.3,N/A,,Clear,320,2013-06-27 19:13:00
2:33 PM,82.4,51.8,35,29.98,10.0,NNW,11.5,24.2,N/A,,Clear,330,2013-06-27 19:33:00
2:53 PM,84.2,51.8,33,29.98,10.0,NW,12.7,25.3,N/A,,Clear,320,2013-06-27 19:53:00
3:13 PM,84.2,48.2,29,29.98,10.0,NNW,18.4,28.8,N/A,,Clear,330,2013-06-27 20:13:00
3:33 PM,84.2,48.2,29,29.98,10.0,NW,13.8,24.2,N/A,,Clear,320,2013-06-27 20:33:00
3:53 PM,84.2,48.2,29,29.97,10.0,NNW,16.1,26.5,N/A,,Clear,340,2013-06-27 20:53:00
4:13 PM,84.2,50.0,30,29.97,10.0,NNW,20.7,27.6,N/A,,Clear,330,2013-06-27 21:13:00
4:33 PM,84.2,50.0,30,29.97,10.0,NNW,18.4,23.0,N/A,,Clear,330,2013-06-27 21:33:00
4:53 PM,84.2,51.8,33,29.96,10.0,NNW,18.4,26.5,N/A,,Clear,340,2013-06-27 21:53:00
5:13 PM,84.2,51.8,33,29.97,10.0,NW,16.1,-,N/A,,Clear,310,2013-06-27 22:13:00
5:33 PM,84.2,53.6,35,29.96,10.0,NW,16.1,23.0,N/A,,Clear,310,2013-06-27 22:33:00
5:53 PM,84.2,53.6,35,29.95,10.0,NW,10.4,19.6,N/A,,Scattered Clouds,310,2013-06-27 22:53:00
6:13 PM,84.2,53.6,35,29.95,10.0,NW,13.8,21.9,N/A,,Scattered Clouds,320,2013-06-27 23:13:00
6:33 PM,84.2,48.2,29,29.95,10.0,NW,18.4,27.6,N/A,,Clear,320,2013-06-27 23:33:00
6:53 PM,84.2,48.2,29,29.95,10.0,NW,16.1,26.5,N/A,,Clear,320,2013-06-27 23:53:00
7:14 PM,84.2,50.0,30,29.94,10.0,NNW,13.8,19.6,N/A,,Clear,330,2013-06-28 00:14:00
7:33 PM,84.2,51.8,33,29.94,10.0,NW,11.5,19.6,N/A,,Clear,320,2013-06-28 00:33:00
7:53 PM,82.4,53.6,37,29.94,10.0,NW,10.4,17.3,N/A,,Clear,320,2013-06-28 00:53:00
8:14 PM,82.4,55.4,39,29.93,10.0,NW,6.9,-,N/A,,Clear,310,2013-06-28 01:14:00
8:33 PM,80.6,55.4,42,29.93,10.0,NW,9.2,-,N/A,,Clear,310,2013-06-28 01:33:00
8:53 PM,78.8,57.2,47,29.92,10.0,NW,6.9,-,N/A,,Clear,310,2013-06-28 01:53:00
9:13 PM,77.0,57.2,50,29.92,10.0,WNW,4.6,-,N/A,,Clear,300,2013-06-28 02:13:00
9:33 PM,75.2,57.2,53,29.92,10.0,WNW,5.8,-,N/A,,Clear,300,2013-06-28 02:33:00
9:53 PM,75.2,59.0,57,29.92,10.0,NW,4.6,-,N/A,,Clear,320,2013-06-28 02:53:00
10:13 PM,75.2,59.0,57,29.93,10.0,NW,5.8,-,N/A,,Clear,320,2013-06-28 03:13:00
10:33 PM,75.2,59.0,57,29.94,10.0,NW,6.9,-,N/A,,Clear,310,2013-06-28 03:33:00
10:53 PM,75.2,59.0,57,29.94,10.0,NNW,6.9,-,N/A,,Clear,330,2013-06-28 03:53:00
11:13 PM,73.4,57.2,57,29.95,10.0,North,9.2,-,N/A,,Clear,350,2013-06-28 04:13:00
11:33 PM,73.4,55.4,53,29.95,10.0,NNW,6.9,-,N/A,,Clear,340,2013-06-28 04:33:00
11:54 PM,73.4,55.4,53,29.96,10.0,NNW,5.8,-,N/A,,Clear,330,2013-06-28 04:54:00